createdAt,value
2022-11-14T00:00:31.932Z,101564.52
2022-11-14T00:03:07.459Z,101560.85
2022-11-14T00:05:36.709Z,101565.92
2022-11-14T00:08:07.906Z,101577.88
2022-11-14T00:10:35.957Z,101570.76
2022-11-14T00:13:04.091Z,101567.59
2022-11-14T00:15:33.369Z,101566.41
2022-11-14T00:18:01.431Z,101556.77
2022-11-14T00:20:29.601Z,101561.83
2022-11-14T00:22:58.591Z,101558.98
2022-11-14T00:25:26.664Z,101555.29
2022-11-14T00:27:57.694Z,101558.98
2022-11-14T00:30:30.145Z,101563.83
2022-11-14T00:33:02.846Z,101572.03
2022-11-14T00:35:30.779Z,101566.97
2022-11-14T00:37:59.027Z,101562.95
2022-11-14T00:40:27.165Z,101555.59
2022-11-14T00:42:55.269Z,101541.73
2022-11-14T00:45:23.377Z,101540.77
2022-11-14T00:47:51.834Z,101525.51
2022-11-14T00:50:20.832Z,101522.14
2022-11-14T00:52:53.313Z,101523.28
2022-11-14T00:55:21.575Z,101513.38
2022-11-14T00:57:54.187Z,101521.68
2022-11-14T01:00:25.295Z,101518.84
2022-11-14T01:03:00.897Z,101520.30
2022-11-14T01:05:29.219Z,101522.83
2022-11-14T01:07:57.244Z,101522.83
2022-11-14T01:10:26.251Z,101530.21
2022-11-14T01:12:54.570Z,101522.59
2022-11-14T01:15:22.591Z,101524.82
2022-11-14T01:17:54.893Z,101528.84
2022-11-14T01:20:22.911Z,101533.55
2022-11-14T01:22:50.941Z,101538.95
2022-11-14T01:25:18.960Z,101551.76
2022-11-14T01:27:57.666Z,101548.10
2022-11-14T01:30:25.846Z,101537.34
2022-11-14T01:32:56.795Z,101532.50
2022-11-14T01:35:24.971Z,101522.53
2022-11-14T01:37:57.273Z,101513.48
2022-11-14T01:40:25.356Z,101501.80
2022-11-14T01:43:17.020Z,101496.96
2022-11-14T01:46:17.788Z,101495.79
2022-11-14T01:49:06.880Z,101490.03
2022-11-14T01:51:50.149Z,101491.41
2022-11-14T01:54:25.391Z,101487.74
2022-11-14T01:57:00.631Z,101490.59
2022-11-14T01:59:39.823Z,101501.41
2022-11-14T02:02:15.384Z,101508.54
2022-11-14T02:04:46.158Z,101509.71
2022-11-14T02:07:14.254Z,101516.02
2022-11-14T02:09:48.856Z,101514.84
2022-11-14T02:12:18.497Z,101512.33
2022-11-14T02:14:47.423Z,101505.17
2022-11-14T02:17:31.677Z,101505.17
2022-11-14T02:20:11.908Z,101503.47
2022-11-14T02:22:44.298Z,101502.33
2022-11-14T02:25:12.465Z,101490.13
2022-11-14T02:27:44.663Z,101496.34
2022-11-14T02:30:20.420Z,101509.71
2022-11-14T02:35:41.700Z,101500.66
2022-11-14T02:38:09.978Z,101502.95
2022-11-14T02:40:38.154Z,101496.41
2022-11-14T02:43:10.605Z,101498.44
2022-11-14T02:45:38.647Z,101499.58
2022-11-14T02:48:08.231Z,101491.89
2022-11-14T02:50:36.532Z,101499.88
2022-11-14T02:53:04.702Z,101491.37
2022-11-14T02:55:32.900Z,101491.70
2022-11-14T02:58:05.622Z,101491.70
2022-11-14T03:00:33.562Z,101491.70
2022-11-14T03:03:06.310Z,101503.57
2022-11-14T03:05:34.343Z,101501.34
2022-11-14T03:08:02.429Z,101504.52
2022-11-14T03:10:34.603Z,101500.82
2022-11-14T03:13:02.612Z,101496.54
2022-11-14T03:15:30.726Z,101499.45
2022-11-14T03:17:58.768Z,101498.89
2022-11-14T03:20:26.872Z,101497.78
2022-11-14T03:23:00.511Z,101496.60
2022-11-14T03:25:34.668Z,101497.23
2022-11-14T03:28:02.898Z,101485.88
2022-11-14T03:30:31.134Z,101492.09
2022-11-14T03:33:01.946Z,101491.53
2022-11-14T03:35:31.678Z,101486.70
2022-11-14T03:37:59.745Z,101481.86
2022-11-14T03:40:27.762Z,101481.04
2022-11-14T03:42:55.881Z,101487.55
2022-11-14T03:45:23.963Z,101485.03
2022-11-14T03:47:52.120Z,101485.55
2022-11-14T03:53:26.966Z,101486.08
2022-11-14T03:55:55.301Z,101491.83
2022-11-14T03:58:23.377Z,101488.79
2022-11-14T04:00:51.541Z,101490.49
2022-11-14T04:03:19.783Z,101491.34
2022-11-14T04:05:50.504Z,101487.09
2022-11-14T04:08:29.038Z,101491.34
2022-11-14T04:10:57.267Z,101499.32
2022-11-14T04:13:27.822Z,101500.98
2022-11-14T04:16:01.014Z,101488.98
2022-11-14T04:18:29.333Z,101481.04
2022-11-14T04:21:02.477Z,101486.50
2022-11-14T04:23:34.972Z,101481.43
2022-11-14T04:26:03.011Z,101474.80
2022-11-14T04:28:31.628Z,101479.02
2022-11-14T04:31:03.099Z,101476.16
2022-11-14T04:33:35.861Z,101470.51
2022-11-14T04:36:03.916Z,101479.02
2022-11-14T04:38:32.387Z,101469.89
2022-11-14T04:41:00.827Z,101459.69
2022-11-14T04:43:34.965Z,101455.99
2022-11-14T04:46:03.029Z,101443.27
2022-11-14T04:48:31.358Z,101446.94
2022-11-14T04:50:59.663Z,101449.78
2022-11-14T04:53:33.239Z,101440.63
2022-11-14T04:56:04.795Z,101442.03
2022-11-14T04:58:33.022Z,101446.74
2022-11-14T05:01:10.688Z,101450.77
2022-11-14T05:03:38.843Z,101445.92
2022-11-14T05:06:07.079Z,101449.91
2022-11-14T05:08:39.830Z,101434.55
2022-11-14T05:11:07.858Z,101438.01
2022-11-14T05:13:36.005Z,101428.86
2022-11-14T05:16:08.495Z,101432.55
2022-11-14T05:18:36.924Z,101435.40
2022-11-14T05:21:05.166Z,101435.92
2022-11-14T05:23:37.700Z,101433.63
2022-11-14T05:26:08.251Z,101418.59
2022-11-14T05:28:36.331Z,101419.08
2022-11-14T05:31:06.026Z,101414.57
2022-11-14T05:33:41.918Z,101422.77
2022-11-14T05:36:14.640Z,101417.64
2022-11-14T05:38:42.937Z,101431.83
2022-11-14T05:41:17.182Z,101424.70
2022-11-14T05:43:45.482Z,101419.83
2022-11-14T05:46:14.997Z,101423.23
2022-11-14T05:48:47.783Z,101416.37
2022-11-14T05:51:15.859Z,101422.61
2022-11-14T05:53:43.847Z,101415.74
2022-11-14T05:56:12.995Z,101418.06
2022-11-14T05:58:41.258Z,101415.98
2022-11-14T06:01:15.351Z,101425.33
2022-11-14T06:03:44.992Z,101425.85
2022-11-14T06:06:15.040Z,101416.70
2022-11-14T06:08:43.187Z,101419.87
2022-11-14T06:11:13.278Z,101404.17
2022-11-14T06:13:41.365Z,101412.09
2022-11-14T06:16:14.913Z,101404.07
2022-11-14T06:18:47.393Z,101413.23
2022-11-14T06:21:25.285Z,101397.37
2022-11-14T06:23:54.381Z,101406.91
2022-11-14T06:26:26.544Z,101412.31
2022-11-14T06:28:54.928Z,101420.84
2022-11-14T06:31:25.649Z,101443.24
2022-11-14T06:33:53.769Z,101438.11
2022-11-14T06:36:26.618Z,101448.08
2022-11-14T06:38:59.301Z,101444.71
2022-11-14T06:41:29.321Z,101457.53
2022-11-14T06:43:57.330Z,101450.41
2022-11-14T06:46:25.670Z,101455.77
2022-11-14T06:48:58.669Z,101449.45
2022-11-14T06:51:26.420Z,101454.82
2022-11-14T06:53:54.199Z,101457.23
2022-11-14T06:56:22.053Z,101460.21
2022-11-14T06:58:50.590Z,101459.66
2022-11-14T07:01:19.925Z,101461.98
2022-11-14T07:03:47.901Z,101458.58
2022-11-14T07:06:41.127Z,101453.70
2022-11-14T07:09:11.006Z,101460.93
2022-11-14T07:11:39.161Z,101462.60
2022-11-14T07:14:21.170Z,101472.18
2022-11-14T07:16:55.008Z,101465.80
2022-11-14T07:19:32.942Z,101471.59
2022-11-14T07:22:04.819Z,101469.37
2022-11-14T07:24:37.446Z,101473.68
2022-11-14T07:27:12.646Z,101475.16
2022-11-14T07:29:40.649Z,101470.64
2022-11-14T07:32:08.803Z,101475.80
2022-11-14T07:34:36.847Z,101482.12
2022-11-14T07:37:10.815Z,101474.53
2022-11-14T07:39:38.769Z,101484.21
2022-11-14T07:42:12.343Z,101480.55
2022-11-14T07:44:43.226Z,101491.70
2022-11-14T07:47:11.173Z,101491.30
2022-11-14T07:49:39.277Z,101509.71
2022-11-14T07:52:07.593Z,101507.72
2022-11-14T07:54:35.759Z,101504.02
2022-11-14T07:57:18.414Z,101512.23
2022-11-14T07:59:46.542Z,101523.09
2022-11-14T08:02:15.994Z,101515.08
2022-11-14T08:04:49.116Z,101522.47
2022-11-14T08:07:20.472Z,101505.73
2022-11-14T08:09:48.827Z,101511.71
2022-11-14T08:12:16.712Z,101503.50
2022-11-14T08:14:44.712Z,101510.34
2022-11-14T08:17:12.753Z,101503.50
2022-11-14T08:19:40.593Z,101506.02
2022-11-14T08:22:08.765Z,101513.41
2022-11-14T08:24:41.991Z,101522.23
2022-11-14T08:27:15.397Z,101523.61
2022-11-14T08:29:44.040Z,101519.30
2022-11-14T08:32:12.811Z,101530.67
2022-11-14T08:34:41.101Z,101526.26
2022-11-14T08:37:09.071Z,101533.19
2022-11-14T08:39:36.895Z,101521.29
2022-11-14T08:42:05.161Z,101536.95
2022-11-14T08:44:37.930Z,101528.16
2022-11-14T08:47:06.507Z,101523.28
2022-11-14T08:49:34.979Z,101532.37
2022-11-14T08:52:03.560Z,101526.36
2022-11-14T08:54:32.194Z,101529.73
2022-11-14T08:57:00.611Z,101531.39
2022-11-14T08:59:28.495Z,101535.94
2022-11-14T09:01:56.456Z,101536.79
2022-11-14T09:04:29.411Z,101537.93
2022-11-14T09:06:57.375Z,101530.77
2022-11-14T09:09:31.449Z,101547.22
2022-11-14T09:12:00.034Z,101547.74
2022-11-14T09:14:27.973Z,101547.67
2022-11-14T09:16:55.976Z,101543.09
2022-11-14T09:19:23.957Z,101544.27
2022-11-14T09:21:57.190Z,101535.22
2022-11-14T09:24:27.077Z,101534.92
2022-11-14T09:26:59.747Z,101532.57
2022-11-14T09:29:28.837Z,101538.26
2022-11-14T09:32:03.641Z,101524.91
2022-11-14T09:34:31.772Z,101524.36
2022-11-14T09:37:00.430Z,101520.05
2022-11-14T09:39:28.394Z,101521.65
2022-11-14T09:42:35.439Z,101520.18
2022-11-14T09:45:05.586Z,101522.04
2022-11-14T09:47:43.841Z,101522.47
2022-11-14T09:50:15.471Z,101520.70
2022-11-14T09:52:47.448Z,101522.07
2022-11-14T09:55:33.627Z,101533.02
2022-11-14T09:58:04.482Z,101528.35
2022-11-14T10:01:09.387Z,101529.10
2022-11-14T10:03:45.183Z,101521.09
2022-11-14T10:06:31.973Z,101531.33
2022-11-14T10:09:18.215Z,101527.53
2022-11-14T10:11:51.940Z,101509.52
2022-11-14T10:14:32.657Z,101518.34
2022-11-14T10:17:25.559Z,101516.41
2022-11-14T10:20:04.670Z,101518.51
2022-11-14T10:23:01.592Z,101519.20
2022-11-14T10:25:39.614Z,101512.55
2022-11-14T10:28:32.820Z,101504.41
2022-11-14T10:31:15.921Z,101517.37
2022-11-14T10:33:51.338Z,101511.22
2022-11-14T10:36:35.961Z,101518.80
2022-11-14T10:39:14.819Z,101512.98
2022-11-14T10:41:57.126Z,101516.32
2022-11-14T10:44:34.194Z,101522.20
2022-11-14T10:47:10.975Z,101520.73
2022-11-14T10:49:39.743Z,101507.00
2022-11-14T10:52:19.909Z,101519.42
2022-11-14T10:54:52.384Z,101515.93
2022-11-14T10:57:21.551Z,101512.95
2022-11-14T10:59:50.094Z,101515.80
2022-11-14T11:02:18.027Z,101514.32
2022-11-14T11:04:46.488Z,101509.13
2022-11-14T11:07:37.248Z,101518.18
2022-11-14T11:10:24.591Z,101520.41
2022-11-14T11:12:56.031Z,101512.36
2022-11-14T11:15:31.610Z,101521.23
2022-11-14T11:18:11.361Z,101510.66
2022-11-14T11:20:42.745Z,101513.21
2022-11-14T11:23:13.535Z,101512.36
2022-11-14T11:25:41.719Z,101504.84
2022-11-14T11:28:18.337Z,101507.69
2022-11-14T11:31:05.501Z,101483.91
2022-11-14T11:33:35.151Z,101492.16
2022-11-14T11:36:08.660Z,101496.57
2022-11-14T11:38:36.757Z,101485.52
2022-11-14T11:44:14.404Z,101487.41
2022-11-14T11:47:02.285Z,101485.06
2022-11-14T11:49:54.565Z,101487.25
2022-11-14T11:52:34.048Z,101486.60
2022-11-14T11:55:14.136Z,101471.49
2022-11-14T11:58:05.457Z,101474.86
2022-11-14T12:00:33.625Z,101479.41
2022-11-14T12:03:01.894Z,101482.61
2022-11-14T12:05:54.320Z,101471.16
2022-11-14T12:08:28.145Z,101470.84
2022-11-14T12:10:56.101Z,101475.05
2022-11-14T12:13:55.778Z,101471.52
2022-11-14T12:16:49.079Z,101473.06
2022-11-14T12:19:51.414Z,101464.01
2022-11-14T12:22:56.858Z,101478.33
2022-11-14T12:25:27.254Z,101470.94
2022-11-14T12:28:07.244Z,101480.02
2022-11-14T12:30:35.432Z,101475.84
2022-11-14T12:33:10.905Z,101469.83
2022-11-14T12:35:40.680Z,101468.81
2022-11-14T12:38:15.762Z,101460.24
2022-11-14T12:40:50.441Z,101462.73
2022-11-14T12:43:39.933Z,101469.30
2022-11-14T12:46:12.781Z,101483.23
2022-11-14T12:48:42.704Z,101478.72
2022-11-14T12:51:28.652Z,101479.02
2022-11-14T12:53:57.874Z,101486.44
2022-11-14T12:56:31.845Z,101479.38
2022-11-14T12:59:05.566Z,101471.49
2022-11-14T13:01:55.443Z,101473.52
2022-11-14T13:04:32.460Z,101475.19
2022-11-14T13:07:18.336Z,101466.95
2022-11-14T13:10:11.333Z,101464.92
2022-11-14T13:12:57.736Z,101464.10
2022-11-14T13:15:52.246Z,101470.12
2022-11-14T13:18:46.003Z,101458.19
2022-11-14T13:21:43.754Z,101465.61
2022-11-14T13:24:12.129Z,101463.91
2022-11-14T13:26:41.909Z,101466.75
2022-11-14T13:29:10.115Z,101457.70
2022-11-14T13:31:37.985Z,101463.74
2022-11-14T13:34:30.331Z,101461.06
2022-11-14T13:37:12.431Z,101459.07
2022-11-14T13:39:46.658Z,101448.93
2022-11-14T13:42:33.036Z,101458.38
2022-11-14T13:45:10.122Z,101456.68
2022-11-14T13:48:07.601Z,101447.55
2022-11-14T13:50:38.668Z,101443.70
2022-11-14T13:53:15.016Z,101449.91
2022-11-14T13:55:50.537Z,101447.23
2022-11-14T13:58:52.308Z,101454.26
2022-11-14T14:01:30.157Z,101445.86
2022-11-14T14:04:00.815Z,101449.36
2022-11-14T14:06:51.180Z,101441.12
2022-11-14T14:09:22.379Z,101444.48
2022-11-14T14:12:05.606Z,101445.66
2022-11-14T14:15:09.967Z,101456.62
2022-11-14T14:17:49.619Z,101446.71
2022-11-14T14:20:40.118Z,101438.80
2022-11-14T14:23:30.859Z,101455.11
2022-11-14T14:26:36.790Z,101446.87
2022-11-14T14:29:24.541Z,101450.93
2022-11-14T14:31:53.141Z,101455.80
2022-11-14T14:34:31.658Z,101449.72
2022-11-14T14:36:59.619Z,101457.79
2022-11-14T14:39:28.797Z,101453.77
2022-11-14T14:41:57.823Z,101459.00
2022-11-14T14:44:30.987Z,101460.18
2022-11-14T14:46:59.143Z,101465.05
2022-11-14T14:49:31.791Z,101465.73
2022-11-14T14:51:59.749Z,101460.34
2022-11-14T14:54:30.613Z,101459.85
2022-11-14T14:57:03.904Z,101459.20
2022-11-14T14:59:32.106Z,101455.83
2022-11-14T15:02:00.052Z,101464.73
2022-11-14T15:04:28.767Z,101462.56
2022-11-14T15:06:58.601Z,101468.78
2022-11-14T15:09:28.890Z,101464.43
2022-11-14T15:12:01.230Z,101465.61
2022-11-14T15:14:33.301Z,101469.98
2022-11-14T15:17:01.260Z,101466.30
2022-11-14T15:19:33.817Z,101458.88
2022-11-14T15:22:05.850Z,101468.62
2022-11-14T15:24:33.699Z,101470.97
2022-11-14T15:27:05.101Z,101473.36
2022-11-14T15:29:34.163Z,101473.36
2022-11-14T15:32:05.740Z,101467.63
2022-11-14T15:34:35.419Z,101461.91
2022-11-14T15:37:08.285Z,101464.27
2022-11-14T15:39:36.232Z,101470.80
2022-11-14T15:42:20.549Z,101458.71
2022-11-14T15:44:48.779Z,101470.80
2022-11-14T15:47:20.767Z,101469.98
2022-11-14T15:50:00.770Z,101466.13
2022-11-14T15:52:36.858Z,101469.66
2022-11-14T15:55:05.017Z,101471.82
2022-11-14T15:57:33.359Z,101476.52
2022-11-14T16:00:01.281Z,101478.20
2022-11-14T16:02:34.282Z,101477.21
2022-11-14T16:05:02.421Z,101470.64
2022-11-14T16:07:30.434Z,101476.52
2022-11-14T16:09:58.379Z,101468.09
2022-11-14T16:12:26.249Z,101461.72
2022-11-14T16:14:54.182Z,101459.85
2022-11-14T16:17:22.088Z,101450.30
2022-11-14T16:19:50.062Z,101445.43
2022-11-14T16:22:18.835Z,101445.43
2022-11-14T16:24:46.888Z,101441.74
2022-11-14T16:27:14.892Z,101452.79
2022-11-14T16:29:42.922Z,101455.14
2022-11-14T16:32:12.413Z,101450.30
2022-11-14T16:34:40.598Z,101448.93
2022-11-14T16:37:14.422Z,101447.76
2022-11-14T16:39:42.520Z,101447.76
2022-11-14T16:42:10.531Z,101443.90
2022-11-14T16:44:41.983Z,101442.00
2022-11-14T16:47:15.493Z,101443.02
2022-11-14T16:49:43.796Z,101454.98
2022-11-14T16:52:12.347Z,101449.78
2022-11-14T16:54:40.481Z,101459.85
2022-11-14T16:57:08.464Z,101464.92
2022-11-14T16:59:36.369Z,101460.54
2022-11-14T17:02:04.893Z,101463.91
2022-11-14T17:04:33.218Z,101462.20
2022-11-14T17:07:01.151Z,101466.26
2022-11-14T17:09:29.290Z,101465.21
2022-11-14T17:12:00.768Z,101461.06
2022-11-14T17:14:28.851Z,101452.95
2022-11-14T17:16:56.677Z,101455.99
2022-11-14T17:19:24.598Z,101457.53
2022-11-14T17:21:52.585Z,101458.67
2022-11-14T17:24:20.418Z,101466.91
2022-11-14T17:26:48.295Z,101462.56
2022-11-14T17:29:16.360Z,101455.60
2022-11-14T17:31:46.971Z,101458.28
2022-11-14T17:34:15.385Z,101459.30
2022-11-14T17:36:43.769Z,101457.11
2022-11-14T17:39:12.314Z,101465.80
2022-11-14T17:41:40.666Z,101460.93
2022-11-14T17:44:12.621Z,101462.77
2022-11-14T17:46:40.998Z,101460.87
2022-11-14T17:49:09.164Z,101471.13
2022-11-14T17:51:37.877Z,101460.70
2022-11-14T17:54:07.412Z,101464.56
2022-11-14T17:56:35.554Z,101467.24
2022-11-14T17:59:04.158Z,101469.23
2022-11-14T18:01:33.015Z,101461.68
2022-11-14T18:04:05.826Z,101470.05
2022-11-14T18:06:34.520Z,101462.47
2022-11-14T18:09:08.137Z,101460.60
2022-11-14T18:11:39.719Z,101473.52
2022-11-14T18:14:07.982Z,101460.21
2022-11-14T18:17:05.426Z,101460.57
2022-11-14T18:19:24.123Z,101465.25
2022-11-14T18:21:53.934Z,101466.55
2022-11-14T18:24:22.957Z,101475.13
2022-11-14T18:26:51.227Z,101467.21
2022-11-14T18:29:22.362Z,101478.75
2022-11-14T18:31:56.419Z,101464.63
2022-11-14T18:34:30.447Z,101468.78
2022-11-14T18:36:59.205Z,101462.56
2022-11-14T18:39:28.227Z,101457.01
2022-11-14T18:41:56.682Z,101467.05
2022-11-14T18:44:25.869Z,101459.79
2022-11-14T18:46:54.055Z,101461.91
2022-11-14T18:49:22.300Z,101456.38
2022-11-14T18:51:53.595Z,101459.23
2022-11-14T18:54:27.682Z,101458.80
2022-11-14T18:56:56.594Z,101456.32
2022-11-14T18:59:24.983Z,101454.42
2022-11-14T19:01:59.920Z,101453.38
2022-11-14T19:04:28.674Z,101457.40
2022-11-14T19:06:57.782Z,101462.04
2022-11-14T19:09:26.363Z,101456.35
2022-11-14T19:12:21.655Z,101460.37
2022-11-14T19:14:52.319Z,101454.78
2022-11-14T19:17:22.964Z,101449.75
2022-11-14T19:19:52.132Z,101457.27
2022-11-14T19:22:25.038Z,101454.72
2022-11-14T19:24:53.568Z,101455.90
2022-11-14T19:27:23.335Z,101461.06
2022-11-14T19:29:52.274Z,101463.91
2022-11-14T19:32:20.917Z,101465.09
2022-11-14T19:34:49.332Z,101464.23
2022-11-14T19:37:20.313Z,101458.15
2022-11-14T19:40:06.054Z,101455.08
2022-11-14T19:42:34.930Z,101452.56
2022-11-14T19:45:08.252Z,101464.04
2022-11-14T19:47:39.799Z,101464.66
2022-11-14T19:50:08.408Z,101459.63
2022-11-14T19:52:36.567Z,101465.12
2022-11-14T19:55:04.930Z,101459.23
2022-11-14T19:57:32.921Z,101465.87
2022-11-14T20:00:01.405Z,101460.93
2022-11-14T20:02:31.006Z,101465.90
2022-11-14T20:04:59.248Z,101465.05
2022-11-14T20:07:27.703Z,101466.20
2022-11-14T20:09:56.029Z,101463.05
2022-11-14T20:12:24.294Z,101457.47
2022-11-14T20:14:52.468Z,101453.15
2022-11-14T20:17:20.642Z,101463.05
2022-11-14T20:19:49.011Z,101465.05
2022-11-14T20:22:17.243Z,101453.05
2022-11-14T20:24:45.479Z,101459.23
2022-11-14T20:27:13.570Z,101465.15
2022-11-14T20:29:41.836Z,101458.61
2022-11-14T20:32:15.463Z,101467.86
2022-11-14T20:34:43.987Z,101460.51
2022-11-14T20:37:15.057Z,101459.33
2022-11-14T20:39:45.726Z,101461.23
2022-11-14T20:42:14.165Z,101457.56
2022-11-14T20:44:42.492Z,101460.90
2022-11-14T20:47:11.294Z,101459.43
2022-11-14T20:49:39.750Z,101456.48
2022-11-14T20:52:07.970Z,101457.59
2022-11-14T20:54:36.220Z,101456.12
2022-11-14T20:57:04.649Z,101455.50
2022-11-14T20:59:33.074Z,101453.51
2022-11-14T21:02:01.289Z,101457.73
2022-11-14T21:04:29.561Z,101448.54
2022-11-14T21:06:57.829Z,101449.62
2022-11-14T21:09:25.961Z,101445.59
2022-11-14T21:11:54.179Z,101439.25
2022-11-14T21:14:22.719Z,101450.83
2022-11-14T21:16:50.813Z,101439.65
2022-11-14T21:19:18.661Z,101433.11
2022-11-14T21:21:47.125Z,101431.11
2022-11-14T21:24:15.337Z,101452.20
2022-11-14T21:26:43.546Z,101451.38
2022-11-14T21:29:13.953Z,101448.18
2022-11-14T21:31:46.315Z,101443.02
2022-11-14T21:34:16.505Z,101439.35
2022-11-14T21:36:46.268Z,101439.84
2022-11-14T21:39:16.907Z,101447.55
2022-11-14T21:41:46.691Z,101436.80
2022-11-14T21:44:15.784Z,101438.80
2022-11-14T21:46:44.563Z,101439.98
2022-11-14T21:49:12.705Z,101444.32
2022-11-14T21:51:40.744Z,101437.45
2022-11-14T21:54:10.292Z,101435.76
2022-11-14T21:56:38.619Z,101435.66
2022-11-14T21:59:15.487Z,101438.50
2022-11-14T22:02:04.806Z,101425.09
2022-11-14T22:04:33.245Z,101427.62
2022-11-14T22:07:06.134Z,101429.61
2022-11-14T22:09:34.631Z,101429.31
2022-11-14T22:12:02.966Z,101434.68
2022-11-14T22:14:30.976Z,101436.15
2022-11-14T22:16:59.748Z,101432.65
2022-11-14T22:19:27.846Z,101426.66
2022-11-14T22:21:56.219Z,101431.70
2022-11-14T22:24:25.130Z,101435.69
2022-11-14T22:26:53.236Z,101426.86
2022-11-14T22:29:21.324Z,101428.34
2022-11-14T22:31:49.435Z,101427.81
2022-11-14T22:34:17.811Z,101423.27
2022-11-14T22:36:46.069Z,101419.70
2022-11-14T22:39:14.233Z,101416.86
2022-11-14T22:41:42.802Z,101415.48
2022-11-14T22:44:11.255Z,101415.84
2022-11-14T22:46:39.303Z,101413.29
2022-11-14T22:49:07.355Z,101420.52
2022-11-14T22:51:35.351Z,101417.97
2022-11-14T22:54:03.238Z,101428.17
2022-11-14T22:56:31.290Z,101430.33
2022-11-14T22:59:00.102Z,101418.95
2022-11-14T23:01:32.461Z,101417.25
2022-11-14T23:04:02.025Z,101415.55
2022-11-14T23:06:30.371Z,101411.23
2022-11-14T23:08:58.293Z,101416.40
2022-11-14T23:11:27.620Z,101422.09
2022-11-14T23:13:56.688Z,101417.87
2022-11-14T23:16:29.095Z,101413.88
2022-11-14T23:18:58.558Z,101414.53
2022-11-14T23:21:28.131Z,101414.27
2022-11-14T23:24:03.646Z,101410.09
2022-11-14T23:26:31.815Z,101408.09
2022-11-14T23:29:00.004Z,101409.56
2022-11-14T23:31:28.005Z,101414.08
2022-11-14T23:33:56.615Z,101411.23
2022-11-14T23:36:24.433Z,101412.41
2022-11-14T23:38:55.129Z,101408.20
2022-11-14T23:41:24.664Z,101399.66
2022-11-14T23:43:52.466Z,101402.30
2022-11-14T23:46:20.230Z,101395.24
2022-11-14T23:48:48.084Z,101400.93
2022-11-14T23:51:15.914Z,101396.91
2022-11-14T23:53:43.795Z,101388.38
2022-11-14T23:56:13.377Z,101391.88
2022-11-14T23:58:41.512Z,101394.72
